DAL438 KSLC-KJAC
Flight info
| Callsign | DAL438 |
|---|---|
| Flight time | 0h 31m |
| Altitude | 29000 |
| Route | RUGGD3 HOLTR ELLKK MOSSS |
| Aircraft | A321/M-SDE3FGHIRWY/LB1 |
Departure
| Time | 2026-05-07 11:37 |
|---|---|
| Airport | Salt Lake City International Airport (KSLC) |
Arrival
| Time | 2026-05-07 12:08 |
|---|---|
| Airport | Jackson Hole Airport (KJAC) |
| Time | Latitude | Longitude | Altitude | Speed | Heading |
|---|---|---|---|---|---|
| 2026-05-07 11:29 | 40.78736 | -111.99258 | 4231 ft | 4 kts | 198° |
| 2026-05-07 11:29 | 40.78726 | -111.99284 | 4231 ft | 4 kts | 258° |
| 2026-05-07 11:29 | 40.78725 | -111.99296 | 4231 ft | 0 kts | 266° |
| 2026-05-07 11:31 | 40.78724 | -111.99319 | 4231 ft | 4 kts | 266° |
| 2026-05-07 11:31 | 40.78738 | -111.99367 | 4233 ft | 7 kts | 321° |
| 2026-05-07 11:32 | 40.78879 | -111.99394 | 4235 ft | 15 kts | 355° |
| 2026-05-07 11:32 | 40.79002 | -111.99407 | 4233 ft | 20 kts | 355° |
| 2026-05-07 11:32 | 40.79155 | -111.99426 | 4233 ft | 24 kts | 354° |
| 2026-05-07 11:33 | 40.79345 | -111.99450 | 4227 ft | 31 kts | 354° |
| 2026-05-07 11:33 | 40.79570 | -111.99475 | 4227 ft | 32 kts | 355° |
| 2026-05-07 11:33 | 40.79788 | -111.99501 | 4227 ft | 31 kts | 355° |
| 2026-05-07 11:33 | 40.79988 | -111.99524 | 4231 ft | 27 kts | 355° |
| 2026-05-07 11:34 | 40.80167 | -111.99544 | 4233 ft | 25 kts | 354° |
| 2026-05-07 11:34 | 40.80331 | -111.99563 | 4232 ft | 23 kts | 355° |
| 2026-05-07 11:34 | 40.80486 | -111.99580 | 4231 ft | 22 kts | 355° |
| 2026-05-07 11:34 | 40.80639 | -111.99598 | 4227 ft | 22 kts | 354° |
| 2026-05-07 11:35 | 40.80741 | -111.99610 | 4224 ft | 22 kts | 355° |
| 2026-05-07 11:35 | 40.80826 | -111.99721 | 4225 ft | 16 kts | 261° |
| 2026-05-07 11:35 | 40.80768 | -111.99832 | 4225 ft | 14 kts | 258° |
| 2026-05-07 11:35 | 40.80731 | -111.99916 | 4227 ft | 9 kts | 212° |
| 2026-05-07 11:36 | 40.80663 | -111.99916 | 4228 ft | 19 kts | 175° |
| 2026-05-07 11:36 | 40.80281 | -111.99869 | 4233 ft | 88 kts | 175° |
| 2026-05-07 11:36 | 40.79450 | -111.99774 | 4227 ft | 143 kts | 174° |
| 2026-05-07 11:36 | 40.78290 | -111.99646 | 4363 ft | 172 kts | 172° |
| 2026-05-07 11:37 | 40.77123 | -111.99546 | 4996 ft | 172 kts | 182° |
| 2026-05-07 11:37 | 40.76022 | -112.00163 | 5599 ft | 179 kts | 221° |
| 2026-05-07 11:37 | 40.75462 | -112.01635 | 6022 ft | 195 kts | 258° |
| 2026-05-07 11:37 | 40.75644 | -112.03505 | 6162 ft | 217 kts | 286° |
| 2026-05-07 11:38 | 40.76191 | -112.05484 | 6311 ft | 236 kts | 290° |
| 2026-05-07 11:38 | 40.76832 | -112.07569 | 6446 ft | 255 kts | 290° |
| 2026-05-07 11:38 | 40.77548 | -112.09835 | 6608 ft | 279 kts | 292° |
| 2026-05-07 11:38 | 40.78666 | -112.11982 | 7091 ft | 293 kts | 317° |
| 2026-05-07 11:39 | 40.80428 | -112.13310 | 7922 ft | 290 kts | 343° |
| 2026-05-07 11:39 | 40.82425 | -112.13493 | 8833 ft | 290 kts | 7° |
| 2026-05-07 11:39 | 40.84326 | -112.12665 | 9730 ft | 291 kts | 19° |
| 2026-05-07 11:39 | 40.86243 | -112.11642 | 10264 ft | 303 kts | 18° |
| 2026-05-07 11:40 | 40.88283 | -112.10549 | 10401 ft | 326 kts | 19° |
| 2026-05-07 11:40 | 40.90436 | -112.09394 | 10521 ft | 347 kts | 19° |
| 2026-05-07 11:40 | 40.92764 | -112.08147 | 10765 ft | 363 kts | 19° |
| 2026-05-07 11:40 | 40.95093 | -112.06895 | 11317 ft | 368 kts | 19° |
| 2026-05-07 11:41 | 40.97472 | -112.05614 | 11982 ft | 370 kts | 18° |
| 2026-05-07 11:41 | 40.99872 | -112.04323 | 12681 ft | 372 kts | 18° |
| 2026-05-07 11:41 | 41.02238 | -112.02777 | 13353 ft | 379 kts | 28° |
| 2026-05-07 11:41 | 41.04330 | -112.00590 | 14000 ft | 388 kts | 40° |
| 2026-05-07 11:42 | 41.06058 | -111.97798 | 14545 ft | 398 kts | 53° |
| 2026-05-07 11:42 | 41.07357 | -111.94513 | 15083 ft | 405 kts | 61° |
| 2026-05-07 11:42 | 41.08549 | -111.91107 | 15629 ft | 408 kts | 61° |
| 2026-05-07 11:42 | 41.09735 | -111.87714 | 16177 ft | 411 kts | 60° |
| 2026-05-07 11:43 | 41.11001 | -111.84301 | 16705 ft | 412 kts | 54° |
| 2026-05-07 11:43 | 41.12674 | -111.81237 | 17180 ft | 408 kts | 43° |
| 2026-05-07 11:43 | 41.14744 | -111.78696 | 17704 ft | 403 kts | 31° |
| 2026-05-07 11:43 | 41.17112 | -111.76742 | 18228 ft | 399 kts | 21° |
| 2026-05-07 11:44 | 41.19679 | -111.75420 | 18706 ft | 394 kts | 11° |
| 2026-05-07 11:44 | 41.22362 | -111.74687 | 19155 ft | 393 kts | 5° |
| 2026-05-07 11:44 | 41.25064 | -111.74056 | 19611 ft | 395 kts | 5° |
| 2026-05-07 11:44 | 41.27789 | -111.73413 | 20051 ft | 398 kts | 5° |
| 2026-05-07 11:45 | 41.30522 | -111.72764 | 20483 ft | 400 kts | 5° |
| 2026-05-07 11:45 | 41.33276 | -111.72111 | 20894 ft | 403 kts | 5° |
| 2026-05-07 11:45 | 41.36036 | -111.71459 | 21249 ft | 404 kts | 5° |
| 2026-05-07 11:45 | 41.38779 | -111.70786 | 21657 ft | 408 kts | 7° |
| 2026-05-07 11:46 | 41.41538 | -111.69765 | 22049 ft | 413 kts | 11° |
| 2026-05-07 11:46 | 41.44297 | -111.68682 | 22457 ft | 415 kts | 11° |
| 2026-05-07 11:46 | 41.47082 | -111.67586 | 22875 ft | 418 kts | 11° |
| 2026-05-07 11:46 | 41.49890 | -111.66479 | 23312 ft | 420 kts | 11° |
| 2026-05-07 11:47 | 41.52675 | -111.65384 | 23710 ft | 423 kts | 11° |
| 2026-05-07 11:47 | 41.55513 | -111.64269 | 24052 ft | 425 kts | 11° |
| 2026-05-07 11:47 | 41.58361 | -111.63149 | 24420 ft | 427 kts | 11° |
| 2026-05-07 11:47 | 41.61222 | -111.62026 | 24786 ft | 428 kts | 11° |
| 2026-05-07 11:48 | 41.64089 | -111.60901 | 25137 ft | 430 kts | 11° |
| 2026-05-07 11:48 | 41.66975 | -111.59764 | 25479 ft | 432 kts | 11° |
| 2026-05-07 11:48 | 41.69833 | -111.58635 | 25802 ft | 434 kts | 11° |
| 2026-05-07 11:48 | 41.72734 | -111.57484 | 26099 ft | 436 kts | 11° |
| 2026-05-07 11:49 | 41.75650 | -111.56330 | 26413 ft | 438 kts | 11° |
| 2026-05-07 11:49 | 41.78579 | -111.55175 | 26694 ft | 438 kts | 10° |
| 2026-05-07 11:49 | 41.81554 | -111.54327 | 27011 ft | 436 kts | 4° |
| 2026-05-07 11:49 | 41.84564 | -111.53656 | 27341 ft | 438 kts | 5° |
| 2026-05-07 11:50 | 41.87577 | -111.52978 | 27655 ft | 439 kts | 5° |
| 2026-05-07 11:50 | 41.90605 | -111.52296 | 27959 ft | 441 kts | 5° |
| 2026-05-07 11:50 | 41.93627 | -111.51612 | 28321 ft | 440 kts | 5° |
| 2026-05-07 11:50 | 41.96648 | -111.50926 | 28757 ft | 438 kts | 5° |
| 2026-05-07 11:51 | 41.99619 | -111.50252 | 29019 ft | 437 kts | 4° |
| 2026-05-07 11:51 | 42.05519 | -111.48905 | 29066 ft | 425 kts | 4° |
| 2026-05-07 11:52 | 42.11331 | -111.47586 | 29068 ft | 423 kts | 4° |
| 2026-05-07 11:52 | 42.17143 | -111.46272 | 29085 ft | 423 kts | 4° |
| 2026-05-07 11:53 | 42.22948 | -111.44954 | 29065 ft | 421 kts | 4° |
| 2026-05-07 11:53 | 42.28732 | -111.43622 | 29064 ft | 422 kts | 6° |
| 2026-05-07 11:54 | 42.34385 | -111.41171 | 29060 ft | 429 kts | 14° |
| 2026-05-07 11:54 | 42.39995 | -111.38380 | 29074 ft | 428 kts | 14° |
| 2026-05-07 11:55 | 42.45552 | -111.35621 | 29067 ft | 428 kts | 14° |
| 2026-05-07 11:55 | 42.51244 | -111.32799 | 29071 ft | 439 kts | 14° |
| 2026-05-07 11:56 | 42.56997 | -111.29932 | 29085 ft | 441 kts | 14° |
| 2026-05-07 11:56 | 42.62758 | -111.27044 | 28158 ft | 443 kts | 14° |
| 2026-05-07 11:56 | 42.65698 | -111.25576 | 26791 ft | 454 kts | 14° |
| 2026-05-07 11:57 | 42.68688 | -111.24083 | 25608 ft | 461 kts | 14° |
| 2026-05-07 11:57 | 42.71714 | -111.22567 | 24469 ft | 466 kts | 14° |
| 2026-05-07 11:57 | 42.74716 | -111.21057 | 23695 ft | 463 kts | 15° |
| 2026-05-07 11:57 | 42.77728 | -111.19534 | 22865 ft | 459 kts | 15° |
| 2026-05-07 11:58 | 42.80716 | -111.18021 | 22067 ft | 454 kts | 15° |
| 2026-05-07 11:58 | 42.83671 | -111.16526 | 21272 ft | 450 kts | 15° |
| 2026-05-07 11:58 | 42.86597 | -111.15048 | 20508 ft | 445 kts | 15° |
| 2026-05-07 11:58 | 42.89483 | -111.13590 | 19735 ft | 441 kts | 15° |
| 2026-05-07 11:59 | 42.92324 | -111.12023 | 19032 ft | 440 kts | 21° |
| 2026-05-07 11:59 | 42.94952 | -111.09948 | 18340 ft | 439 kts | 26° |
| 2026-05-07 11:59 | 42.97569 | -111.07759 | 17553 ft | 435 kts | 26° |
| 2026-05-07 11:59 | 43.00107 | -111.05634 | 17325 ft | 419 kts | 26° |
| 2026-05-07 12:00 | 43.02539 | -111.03594 | 17195 ft | 401 kts | 26° |
| 2026-05-07 12:00 | 43.04838 | -111.01665 | 17072 ft | 386 kts | 25° |
| 2026-05-07 12:00 | 43.07130 | -110.99812 | 16934 ft | 368 kts | 20° |
| 2026-05-07 12:00 | 43.09437 | -110.98544 | 16811 ft | 349 kts | 13° |
| 2026-05-07 12:01 | 43.11695 | -110.97481 | 16685 ft | 337 kts | 13° |
| 2026-05-07 12:01 | 43.13870 | -110.96444 | 16554 ft | 327 kts | 13° |
| 2026-05-07 12:01 | 43.15986 | -110.95429 | 16348 ft | 318 kts | 13° |
| 2026-05-07 12:01 | 43.18036 | -110.94441 | 16036 ft | 315 kts | 13° |
| 2026-05-07 12:02 | 43.20101 | -110.93446 | 15688 ft | 313 kts | 13° |
| 2026-05-07 12:02 | 43.22153 | -110.92463 | 15326 ft | 312 kts | 13° |
| 2026-05-07 12:02 | 43.24193 | -110.91486 | 14981 ft | 310 kts | 13° |
| 2026-05-07 12:02 | 43.26224 | -110.90509 | 14559 ft | 309 kts | 13° |
| 2026-05-07 12:03 | 43.28256 | -110.89529 | 14158 ft | 309 kts | 13° |
| 2026-05-07 12:03 | 43.30283 | -110.88552 | 13800 ft | 307 kts | 13° |
| 2026-05-07 12:03 | 43.32291 | -110.87582 | 13381 ft | 306 kts | 13° |
| 2026-05-07 12:03 | 43.34320 | -110.86607 | 12684 ft | 314 kts | 14° |
| 2026-05-07 12:04 | 43.36411 | -110.85606 | 11829 ft | 319 kts | 14° |
| 2026-05-07 12:04 | 43.38502 | -110.84592 | 10989 ft | 316 kts | 15° |
| 2026-05-07 12:04 | 43.40562 | -110.83589 | 10270 ft | 309 kts | 16° |
| 2026-05-07 12:04 | 43.42523 | -110.82633 | 9671 ft | 294 kts | 16° |
| 2026-05-07 12:05 | 43.44360 | -110.81735 | 9316 ft | 264 kts | 16° |
| 2026-05-07 12:05 | 43.46035 | -110.80916 | 9055 ft | 249 kts | 16° |
| 2026-05-07 12:05 | 43.47601 | -110.80153 | 8826 ft | 229 kts | 15° |
| 2026-05-07 12:05 | 43.49027 | -110.79459 | 8616 ft | 204 kts | 17° |
| 2026-05-07 12:06 | 43.49901 | -110.79032 | 8446 ft | 191 kts | 17° |
| 2026-05-07 12:06 | 43.51093 | -110.78456 | 8170 ft | 177 kts | 18° |
| 2026-05-07 12:06 | 43.52246 | -110.77913 | 7979 ft | 174 kts | 18° |
| 2026-05-07 12:06 | 43.53449 | -110.77357 | 7869 ft | 189 kts | 17° |
| 2026-05-07 12:07 | 43.54707 | -110.76756 | 7687 ft | 184 kts | 19° |
| 2026-05-07 12:07 | 43.55842 | -110.76151 | 7422 ft | 169 kts | 19° |
| 2026-05-07 12:07 | 43.56954 | -110.75599 | 7153 ft | 166 kts | 18° |
| 2026-05-07 12:07 | 43.58021 | -110.75105 | 6965 ft | 161 kts | 18° |
| 2026-05-07 12:08 | 43.59116 | -110.74574 | 6739 ft | 166 kts | 19° |
| 2026-05-07 12:08 | 43.60176 | -110.74046 | 6436 ft | 158 kts | 18° |
| 2026-05-07 12:08 | 43.61091 | -110.73614 | 6447 ft | 107 kts | 21° |
| 2026-05-07 12:08 | 43.61481 | -110.73412 | 6448 ft | 16 kts | 20° |
| 2026-05-07 12:09 | 43.61522 | -110.73319 | 6445 ft | 11 kts | 98° |
| 2026-05-07 12:09 | 43.61481 | -110.73250 | 6452 ft | 7 kts | 167° |
| 2026-05-07 12:09 | 43.61433 | -110.73274 | 6446 ft | 7 kts | 201° |
| 2026-05-07 12:09 | 43.61386 | -110.73299 | 6445 ft | 7 kts | 199° |
| 2026-05-07 12:10 | 43.61338 | -110.73322 | 6445 ft | 8 kts | 199° |
| 2026-05-07 12:10 | 43.61272 | -110.73355 | 6445 ft | 12 kts | 200° |
| 2026-05-07 12:10 | 43.61178 | -110.73400 | 6443 ft | 15 kts | 199° |
| 2026-05-07 12:10 | 43.61079 | -110.73448 | 6439 ft | 15 kts | 199° |
| 2026-05-07 12:11 | 43.60982 | -110.73494 | 6440 ft | 15 kts | 199° |
| 2026-05-07 12:11 | 43.60887 | -110.73541 | 6443 ft | 14 kts | 199° |
| 2026-05-07 12:11 | 43.60794 | -110.73587 | 6439 ft | 14 kts | 199° |
| 2026-05-07 12:11 | 43.60700 | -110.73632 | 6439 ft | 14 kts | 199° |
| 2026-05-07 12:12 | 43.60609 | -110.73678 | 6433 ft | 14 kts | 200° |
| 2026-05-07 12:12 | 43.60516 | -110.73724 | 6434 ft | 14 kts | 199° |
| 2026-05-07 12:12 | 43.60422 | -110.73770 | 6429 ft | 14 kts | 199° |
| 2026-05-07 12:12 | 43.60328 | -110.73816 | 6425 ft | 14 kts | 199° |
| 2026-05-07 12:13 | 43.60289 | -110.73813 | 6428 ft | 2 kts | 135° |
| 2026-05-07 12:13 | 43.60288 | -110.73808 | 6428 ft | 0 kts | 117° |
| 2026-05-07 12:13 | 43.60277 | -110.73762 | 6429 ft | 7 kts | 109° |
| 2026-05-07 12:13 | 43.60273 | -110.73747 | 6428 ft | 0 kts | 108° |